Time;durP1;ratioP1;P1;durP2;ratioP2;P2;SDS_P1;SDS_P2;PMS_P1;PMS_P2;Temp;Humidity;BMP_temperature;BMP_pressure;BME280_temperature;BME280_humidity;BME280_pressure;Samples;Min_cycle;Max_cycle;Signal;HPM_P1;HPM_P2
2021/01/26 00:02:14;;;;;;;0.20;0.10;;;;;;;1.97;100.00;99952.94;5040551;28;20459;-48
2021/01/26 00:04:40;;;;;;;0.20;0.10;;;;;;;1.88;100.00;99956.41;5036116;28;20512;-46
2021/01/26 00:07:06;;;;;;;0.20;0.10;;;;;;;1.97;100.00;99960.81;5040444;28;20455;-46
2021/01/26 00:09:33;;;;;;;0.20;0.10;;;;;;;1.95;100.00;99960.81;5034712;28;20451;-47
2021/01/26 00:11:59;;;;;;;0.20;0.13;;;;;;;1.85;100.00;99959.03;5040865;28;20493;-46
2021/01/26 00:14:26;;;;;;;0.20;0.10;;;;;;;1.84;100.00;99964.28;5035377;28;20958;-47
2021/01/26 00:16:52;;;;;;;0.20;0.10;;;;;;;1.76;100.00;99953.78;5040008;28;20451;-46
2021/01/26 00:19:18;;;;;;;0.20;0.10;;;;;;;1.80;100.00;99962.53;5035676;28;20451;-47
2021/01/26 00:21:44;;;;;;;0.20;0.10;;;;;;;1.81;100.00;99959.03;5040619;28;20521;-47
2021/01/26 00:24:11;;;;;;;0.20;0.10;;;;;;;1.73;100.00;99956.41;5039154;28;20516;-47
2021/01/26 00:26:37;;;;;;;0.20;0.10;;;;;;;1.80;100.00;99966.03;5040456;28;20444;-46
2021/01/26 00:29:08;;;;;;;0.40;0.40;;;;;;;1.79;100.00;99974.75;5035714;28;20817;-47
2021/01/26 00:31:35;;;;;;;0.20;0.10;;;;;;;1.76;100.00;99961.63;5051182;28;20845;-49
2021/01/26 00:34:03;;;;;;;0.20;0.10;;;;;;;1.86;100.00;99960.78;5031738;28;20471;-46
2021/01/26 00:36:29;;;;;;;0.20;0.10;;;;;;;1.95;100.00;99954.69;5043859;28;20455;-47
2021/01/26 00:38:56;;;;;;;1.57;1.47;;;;;;;1.93;100.00;99952.06;5032445;28;20491;-47
2021/01/26 00:41:22;;;;;;;0.20;0.10;;;;;;;1.84;100.00;99961.66;5046738;28;20760;-47
2021/01/26 00:43:48;;;;;;;0.20;0.10;;;;;;;1.92;100.00;99952.94;5047690;28;20467;-47
2021/01/26 00:46:14;;;;;;;0.20;0.10;;;;;;;1.89;100.00;99958.16;5047268;28;20496;-48
2021/01/26 00:48:40;;;;;;;0.20;0.10;;;;;;;1.92;100.00;99967.75;5035477;28;20447;-47
2021/01/26 00:51:06;;;;;;;0.20;0.10;;;;;;;1.96;100.00;99953.81;5047885;28;20450;-47
2021/01/26 00:53:32;;;;;;;0.20;0.10;;;;;;;1.84;100.00;99949.44;5043386;28;20936;-47
2021/01/26 00:55:58;;;;;;;0.20;0.10;;;;;;;1.80;100.00;99963.41;5044398;28;20467;-48
2021/01/26 00:58:24;;;;;;;0.20;0.10;;;;;;;1.85;100.00;99960.78;5034749;28;20487;-46
2021/01/26 01:00:50;;;;;;;0.20;0.10;;;;;;;1.78;100.00;99957.25;5055107;28;20455;-48
2021/01/26 01:03:17;;;;;;;0.20;0.10;;;;;;;1.87;100.00;99951.19;5048529;28;20839;-46
2021/01/26 01:05:43;;;;;;;0.20;0.10;;;;;;;1.86;100.00;99962.53;5046997;28;20455;-47
2021/01/26 01:08:10;;;;;;;2.67;2.57;;;;;;;1.88;100.00;99961.66;5034803;28;20455;-46
2021/01/26 01:10:38;;;;;;;0.20;0.10;;;;;;;1.81;100.00;99959.03;5051801;28;20858;-47
2021/01/26 01:13:05;;;;;;;0.20;0.10;;;;;;;1.81;100.00;99959.03;5052902;28;20840;-47
2021/01/26 01:15:32;;;;;;;0.20;0.10;;;;;;;1.82;100.00;99964.28;5034468;28;20510;-47
2021/01/26 01:17:58;;;;;;;0.20;0.10;;;;;;;1.98;100.00;99957.31;5047065;28;21072;-48
2021/01/26 01:20:26;;;;;;;0.20;0.10;;;;;;;1.94;100.00;99948.56;5034481;28;20539;-46
2021/01/26 01:22:53;;;;;;;0.20;0.10;;;;;;;1.96;100.00;99953.81;5047357;28;20842;-47
2021/01/26 01:25:19;;;;;;;0.20;0.10;;;;;;;1.93;100.00;99944.22;5051413;28;20532;-47
2021/01/26 01:27:46;;;;;;;0.30;0.30;;;;;;;1.99;100.00;99946.81;5049884;28;20485;-47
2021/01/26 01:30:17;;;;;;;0.20;0.10;;;;;;;1.98;100.00;99936.34;5046078;28;20520;-48
2021/01/26 01:32:44;;;;;;;0.20;0.10;;;;;;;2.04;100.00;99946.81;5036226;28;20467;-46
2021/01/26 01:35:10;;;;;;;0.20;0.10;;;;;;;2.03;100.00;99943.31;5044916;28;20517;-47
2021/01/26 01:37:37;;;;;;;0.20;0.10;;;;;;;2.26;100.00;99953.81;5035723;28;21038;-47
2021/01/26 01:40:04;;;;;;;2.00;1.90;;;;;;;2.37;100.00;99962.56;5044662;28;20444;-47
2021/01/26 01:42:33;;;;;;;0.20;0.10;;;;;;;2.28;100.00;99959.91;5036133;28;20506;-46
2021/01/26 01:44:59;;;;;;;0.20;0.20;;;;;;;2.24;100.00;99959.94;5044196;28;20505;-52
2021/01/26 01:47:30;;;;;;;0.20;0.10;;;;;;;2.37;100.00;99967.78;5036924;28;20446;-52
2021/01/26 01:49:59;;;;;;;0.20;0.10;;;;;;;2.26;100.00;99968.66;5043137;28;20447;-54
2021/01/26 01:52:31;;;;;;;2.57;2.47;;;;;;;2.26;100.00;99959.06;5037057;28;20455;-52
2021/01/26 01:55:14;;;;;;;0.20;0.10;;;;;;;2.37;100.00;99959.94;5053301;28;20446;-53
2021/01/26 01:57:46;;;;;;;0.20;0.10;;;;;;;2.48;99.74;99959.91;5041003;28;20501;-53
2021/01/26 02:00:17;;;;;;;0.20;0.10;;;;;;;2.34;100.00;99967.81;5038015;28;20451;-54
2021/01/26 02:02:50;;;;;;;0.20;0.10;;;;;;;2.38;100.00;99972.16;5042844;28;20562;-53
2021/01/26 02:05:17;;;;;;;0.20;0.10;;;;;;;2.32;100.00;99964.28;5049448;28;20502;-53
2021/01/26 02:07:44;;;;;;;0.20;0.10;;;;;;;2.41;100.00;99971.28;5033369;28;20464;-53
2021/01/26 02:10:11;;;;;;;0.20;0.10;;;;;;;2.34;100.00;99969.56;5046290;28;20487;-53
2021/01/26 02:12:39;;;;;;;0.20;0.10;;;;;;;2.13;100.00;99969.53;5033130;28;20985;-53
2021/01/26 02:15:06;;;;;;;0.20;0.10;;;;;;;2.21;100.00;99963.44;5046682;28;20451;-53
2021/01/26 02:17:45;;;;;;;0.20;0.10;;;;;;;2.29;100.00;99969.53;5032717;28;21011;-53
2021/01/26 02:20:46;;;;;;;0.20;0.10;;;;;;;2.42;100.00;99978.28;5046118;28;20897;-53
2021/01/26 02:23:15;;;;;;;0.20;0.10;;;;;;;2.37;100.00;99978.28;5037048;28;20865;-52
2021/01/26 02:26:20;;;;;;;0.20;0.10;;;;;;;2.36;100.00;99968.66;5043823;28;20458;-52
2021/01/26 02:28:55;;;;;;;0.20;0.10;;;;;;;2.27;100.00;99979.16;5052614;28;20447;-53
2021/01/26 02:31:46;;;;;;;0.20;0.10;;;;;;;2.47;100.00;99971.28;5048019;28;20451;-53
2021/01/26 02:34:18;;;;;;;0.20;0.10;;;;;;;2.36;100.00;99975.66;5032350;28;20849;-53
2021/01/26 02:37:22;;;;;;;0.20;0.10;;;;;;;2.36;100.00;99973.91;5043999;28;20459;-54
2021/01/26 02:40:29;;;;;;;0.20;0.10;;;;;;;2.34;100.00;99978.28;5039853;28;20450;-53
2021/01/26 02:43:17;;;;;;;0.30;0.20;;;;;;;2.46;100.00;99982.63;5021116;28;20467;-53
2021/01/26 02:46:11;;;;;;;0.20;0.10;;;;;;;2.41;100.00;99981.78;5046002;28;20469;-53
2021/01/26 02:49:07;;;;;;;0.20;0.10;;;;;;;2.41;100.00;99986.16;5032639;28;20444;-53
2021/01/26 02:51:37;;;;;;;0.20;0.10;;;;;;;2.48;100.00;99978.28;5035607;28;20529;-53
2021/01/26 02:54:12;;;;;;;0.20;0.10;;;;;;;2.47;100.00;99984.41;5041433;28;20466;-53
2021/01/26 02:56:53;;;;;;;0.20;0.10;;;;;;;2.52;100.00;99980.00;5047316;28;20560;-53
2021/01/26 02:59:38;;;;;;;0.20;0.10;;;;;;;2.51;100.00;99988.75;5032041;28;20491;-52
2021/01/26 03:02:39;;;;;;;0.20;0.10;;;;;;;2.58;100.00;99990.50;5043217;28;20455;-54
2021/01/26 03:05:27;;;;;;;0.20;0.10;;;;;;;2.62;100.00;99989.63;5027822;28;20966;-52
2021/01/26 03:08:01;;;;;;;0.20;0.20;;;;;;;2.47;100.00;99989.66;5035240;28;20518;-53
2021/01/26 03:10:40;;;;;;;0.50;0.50;;;;;;;2.68;100.00;99992.22;5043092;28;20439;-53
2021/01/26 03:13:09;;;;;;;0.20;0.10;;;;;;;2.72;100.00;99992.22;5032149;28;20467;-52
2021/01/26 03:15:51;;;;;;;0.20;0.10;;;;;;;2.63;100.00;99993.13;5045315;28;20458;-52
2021/01/26 03:18:20;;;;;;;0.20;0.10;;;;;;;2.70;100.00;99994.84;5032235;28;20487;-53
2021/01/26 03:20:52;;;;;;;0.30;0.20;;;;;;;2.70;100.00;99997.47;5044894;28;20801;-53
2021/01/26 03:23:53;;;;;;;0.20;0.10;;;;;;;2.75;100.00;100005.38;5032616;28;20986;-52
2021/01/26 03:26:21;;;;;;;0.20;0.10;;;;;;;2.61;100.00;100008.00;5037205;28;20459;-53
2021/01/26 03:28:55;;;;;;;0.20;0.10;;;;;;;2.75;100.00;100007.97;5035166;28;20448;-53
2021/01/26 03:31:35;;;;;;;0.20;0.10;;;;;;;2.85;100.00;100007.94;5041708;28;20935;-52
2021/01/26 03:34:01;;;;;;;0.20;0.10;;;;;;;2.83;100.00;100017.56;5033026;28;20463;-54
2021/01/26 03:36:27;;;;;;;0.20;0.10;;;;;;;2.65;100.00;100013.22;5043852;28;20610;-51
2021/01/26 03:38:53;;;;;;;0.40;0.40;;;;;;;2.63;100.00;100012.38;5033009;28;20538;-53
2021/01/26 03:41:20;;;;;;;0.20;0.10;;;;;;;2.78;100.00;100013.22;5044122;28;20450;-54
2021/01/26 03:43:48;;;;;;;0.20;0.10;;;;;;;2.79;100.00;100010.59;5033290;28;20476;-54
2021/01/26 03:46:45;;;;;;;0.20;0.10;;;;;;;2.89;100.00;100004.44;5042648;28;20500;-53
2021/01/26 03:49:13;;;;;;;0.20;0.10;;;;;;;2.80;100.00;100007.09;5042702;28;20909;-52
2021/01/26 03:51:48;;;;;;;0.20;0.10;;;;;;;3.05;100.00;100007.03;5035389;28;20457;-53
2021/01/26 03:54:41;;;;;;;0.20;0.10;;;;;;;2.77;100.00;100017.59;5049183;28;20462;-52
2021/01/26 03:57:16;;;;;;;0.20;0.10;;;;;;;2.99;100.00;100010.53;5037880;28;20467;-53
2021/01/26 03:59:58;;;;;;;0.20;0.10;;;;;;;3.00;100.00;100007.03;5034948;28;20448;-53
2021/01/26 04:02:33;;;;;;;0.20;0.13;;;;;;;2.94;100.00;100013.19;5043512;28;20489;-53
2021/01/26 04:05:11;;;;;;;0.20;0.10;;;;;;;3.05;100.00;100013.16;5044790;28;20578;-53
2021/01/26 04:07:48;;;;;;;0.20;0.10;;;;;;;2.81;100.00;100007.97;5032935;28;20440;-53
2021/01/26 04:10:27;;;;;;;0.20;0.10;;;;;;;2.74;100.00;100028.09;5041801;28;20917;-53
2021/01/26 04:12:57;;;;;;;0.20;0.10;;;;;;;2.68;100.00;100014.97;5036103;28;20910;-53
2021/01/26 04:15:30;;;;;;;0.20;0.10;;;;;;;2.65;100.00;100015.84;5043356;28;20991;-53
2021/01/26 04:17:56;;;;;;;0.20;0.10;;;;;;;2.61;100.00;100006.25;5040091;28;20540;-53
2021/01/26 04:20:27;;;;;;;0.20;0.10;;;;;;;2.52;100.00;100014.13;5042353;28;20810;-53
2021/01/26 04:22:56;;;;;;;0.20;0.10;;;;;;;2.78;100.00;99997.47;5042288;28;20462;-53
2021/01/26 04:25:35;;;;;;;0.20;0.10;;;;;;;2.71;100.00;99999.22;5054315;28;20508;-53
2021/01/26 04:28:12;;;;;;;0.20;0.10;;;;;;;2.49;100.00;100003.63;5035873;28;20809;-52
2021/01/26 04:30:39;;;;;;;0.20;0.10;;;;;;;2.63;100.00;100006.25;5048859;28;20486;-53
2021/01/26 04:33:14;;;;;;;0.20;0.20;;;;;;;2.51;100.00;100004.50;5035114;28;20463;-53
2021/01/26 04:35:41;;;;;;;0.20;0.10;;;;;;;2.52;100.00;100013.25;5048641;28;20451;-53
2021/01/26 04:38:08;;;;;;;0.20;0.10;;;;;;;2.54;100.00;100008.88;5033956;28;21008;-53
2021/01/26 04:40:35;;;;;;;0.20;0.10;;;;;;;2.53;100.00;100021.09;5048427;28;20509;-53
2021/01/26 04:43:10;;;;;;;0.20;0.10;;;;;;;2.66;100.00;100012.34;5035288;28;20475;-53
2021/01/26 04:45:45;;;;;;;0.20;0.10;;;;;;;2.59;100.00;100017.59;5042005;28;20542;-53
2021/01/26 04:48:23;;;;;;;39.50;4.20;;;;;;;2.56;100.00;100021.09;5040390;28;20447;-53
2021/01/26 04:50:55;;;;;;;0.20;0.10;;;;;;;2.47;100.00;100025.47;5044545;28;20831;-53
2021/01/26 04:53:40;;;;;;;0.20;0.10;;;;;;;2.53;100.00;100023.72;5038768;28;20882;-51
2021/01/26 04:56:30;;;;;;;0.20;0.10;;;;;;;2.59;100.00;100031.59;5054028;28;20549;-51
2021/01/26 04:59:08;;;;;;;0.33;0.33;;;;;;;2.64;100.00;100026.34;5034968;28;20479;-52
2021/01/26 05:02:11;;;;;;;0.20;0.10;;;;;;;2.65;100.00;100030.72;5050800;28;20478;-52
2021/01/26 05:04:43;;;;;;;0.20;0.20;;;;;;;2.69;100.00;100032.47;5050824;28;20562;-51
2021/01/26 05:07:17;;;;;;;0.20;0.10;;;;;;;2.68;100.00;100034.22;5034442;28;20490;-51
2021/01/26 05:09:56;;;;;;;0.20;0.10;;;;;;;2.65;100.00;100043.84;5048151;28;20471;-52
2021/01/26 05:12:25;;;;;;;0.20;0.10;;;;;;;2.68;100.00;100033.34;5034867;28;20443;-51
2021/01/26 05:14:55;;;;;;;0.20;0.10;;;;;;;2.45;100.00;100043.84;5046796;28;20454;-51
2021/01/26 05:17:28;;;;;;;0.20;0.10;;;;;;;2.60;100.00;100045.56;5036061;28;20444;-51
2021/01/26 05:20:04;;;;;;;0.20;0.10;;;;;;;2.52;100.00;100048.22;5045488;28;20818;-52
2021/01/26 05:22:54;;;;;;;0.20;0.20;;;;;;;2.46;100.00;100049.94;5038138;28;20492;-52
2021/01/26 05:25:22;;;;;;;0.20;0.10;;;;;;;2.60;100.00;100050.81;5053606;28;20447;-51
2021/01/26 05:27:49;;;;;;;0.20;0.10;;;;;;;2.64;100.00;100060.47;5034918;28;20482;-51
2021/01/26 05:30:26;;;;;;;0.40;0.40;;;;;;;2.51;100.00;100056.97;5048450;28;20864;-51
2021/01/26 05:32:54;;;;;;;0.20;0.10;;;;;;;2.59;100.00;100067.44;5034720;28;20467;-51
2021/01/26 05:35:21;;;;;;;0.20;0.10;;;;;;;2.63;100.00;100071.84;5047418;28;20936;-51
2021/01/26 05:37:52;;;;;;;0.20;0.10;;;;;;;2.71;100.00;100077.94;5034119;28;20809;-51
2021/01/26 05:40:31;;;;;;;0.20;0.10;;;;;;;2.67;100.00;100073.56;5047885;28;20478;-52
2021/01/26 05:43:05;;;;;;;0.20;0.10;;;;;;;2.77;100.00;100074.47;5034063;28;20463;-52
2021/01/26 05:45:35;;;;;;;0.20;0.10;;;;;;;2.88;100.00;100070.06;5047487;28;20451;-51
2021/01/26 05:48:11;;;;;;;0.20;0.10;;;;;;;2.93;100.00;100069.19;5033911;28;20459;-51
2021/01/26 05:50:40;;;;;;;0.20;0.10;;;;;;;3.00;100.00;100069.16;5041340;28;20446;-52
2021/01/26 05:53:25;;;;;;;0.20;0.10;;;;;;;2.88;100.00;100070.94;5039500;28;20498;-52
2021/01/26 05:56:07;;;;;;;0.20;0.10;;;;;;;2.85;100.00;100073.56;5045318;28;20877;-51
2021/01/26 05:58:34;;;;;;;0.20;0.10;;;;;;;2.82;100.00;100083.19;5033804;28;20479;-52
2021/01/26 06:01:03;;;;;;;0.20;0.10;;;;;;;2.90;100.00;100071.81;5045328;28;20456;-51
2021/01/26 06:03:30;;;;;;;0.20;0.10;;;;;;;3.02;100.00;100067.44;5053705;28;20858;-52
2021/01/26 06:06:05;;;;;;;0.20;0.10;;;;;;;3.02;100.00;100064.81;5038776;28;20932;-51
2021/01/26 06:08:54;;;;;;;0.20;0.10;;;;;;;3.12;100.00;100048.13;5042622;28;20446;-52
2021/01/26 06:11:31;;;;;;;0.20;0.10;;;;;;;2.95;100.00;100053.44;5034022;28;20447;-51
2021/01/26 06:14:10;;;;;;;0.20;0.10;;;;;;;2.92;100.00;100056.06;5046701;28;20539;-52
2021/01/26 06:16:36;;;;;;;0.20;0.10;;;;;;;2.88;100.00;100057.81;5033459;28;20510;-52
2021/01/26 06:19:04;;;;;;;0.20;0.10;;;;;;;3.04;100.00;100057.81;5046351;28;20482;-52
2021/01/26 06:21:44;;;;;;;0.20;0.10;;;;;;;3.07;100.00;100057.78;5033677;28;20945;-52
2021/01/26 06:24:22;;;;;;;0.20;0.10;;;;;;;3.16;100.00;100053.41;5051365;28;20527;-51
2021/01/26 06:27:28;;;;;;;0.20;0.10;;;;;;;3.19;99.92;100057.75;5040561;28;20439;-51
2021/01/26 06:30:26;;;;;;;0.20;0.10;;;;;;;3.13;100.00;100063.00;5045235;28;20470;-52
2021/01/26 06:33:30;;;;;;;0.20;0.10;;;;;;;3.26;99.24;100073.47;5043795;28;20889;-52
2021/01/26 06:36:15;;;;;;;0.20;0.10;;;;;;;3.19;99.71;100089.28;5032463;28;20458;-52
2021/01/26 06:39:10;;;;;;;0.20;0.10;;;;;;;3.24;99.45;100072.63;5035567;28;21042;-52
2021/01/26 06:41:41;;;;;;;0.20;0.10;;;;;;;3.21;98.55;100070.00;5046370;28;20477;-52
2021/01/26 06:44:29;;;;;;;0.20;0.10;;;;;;;3.27;98.58;100075.22;5032988;28;21030;-52
2021/01/26 06:47:17;;;;;;;0.20;0.10;;;;;;;3.27;98.16;100090.13;5046372;28;20452;-52
2021/01/26 06:49:56;;;;;;;0.20;0.10;;;;;;;3.36;98.24;100081.34;5034501;28;20440;-52
2021/01/26 06:52:41;;;;;;;0.20;0.10;;;;;;;3.39;97.91;100073.44;5042271;28;20944;-52
2021/01/26 06:55:21;;;;;;;0.20;0.10;;;;;;;3.42;97.88;100066.41;5048353;28;20909;-53
2021/01/26 06:58:05;;;;;;;0.20;0.20;;;;;;;3.36;97.77;100086.59;5038681;28;20435;-52
2021/01/26 07:01:01;;;;;;;0.20;0.10;;;;;;;3.39;97.96;100082.19;5042615;28;20990;-52
2021/01/26 07:03:57;;;;;;;0.20;0.10;;;;;;;3.28;98.70;100083.97;5040067;28;20516;-52
2021/01/26 07:06:57;;;;;;;0.20;0.13;;;;;;;3.21;99.46;100101.53;5033713;28;20501;-51
2021/01/26 07:09:49;;;;;;;0.20;0.10;;;;;;;3.23;99.12;100091.88;5045732;28;20995;-51
2021/01/26 07:12:18;;;;;;;0.20;0.10;;;;;;;3.24;99.11;100098.00;5032649;28;20949;-52
2021/01/26 07:15:05;;;;;;;0.20;0.10;;;;;;;3.30;98.98;100100.63;5039273;28;20451;-52
2021/01/26 07:17:45;;;;;;;0.20;0.10;;;;;;;3.21;100.00;100100.66;5035695;28;20444;-52
2021/01/26 07:20:35;;;;;;;0.20;0.10;;;;;;;3.22;99.61;100105.00;5044104;28;20457;-52
2021/01/26 07:23:21;;;;;;;0.20;0.10;;;;;;;3.25;99.28;100105.00;5044796;28;20472;-52
2021/01/26 07:26:21;;;;;;;0.20;0.10;;;;;;;3.24;98.83;100105.88;5045872;28;20447;-52
2021/01/26 07:28:56;;;;;;;0.20;0.10;;;;;;;3.19;98.42;100105.91;5034531;28;20501;-52
2021/01/26 07:31:28;;;;;;;0.20;0.10;;;;;;;3.24;98.86;100108.50;5042225;28;20450;-50
2021/01/26 07:34:04;;;;;;;0.20;0.10;;;;;;;3.36;98.09;100102.34;5036013;28;21059;-52
2021/01/26 07:36:42;;;;;;;0.20;0.10;;;;;;;3.32;97.15;100116.38;5040471;28;20451;-52
2021/01/26 07:39:08;;;;;;;0.20;0.10;;;;;;;3.37;96.68;100120.75;5038895;28;21072;-52
2021/01/26 07:42:06;;;;;;;0.20;0.10;;;;;;;3.25;96.83;100129.50;5037042;28;20444;-52
2021/01/26 07:45:14;;;;;;;0.20;0.20;;;;;;;3.21;97.08;100129.53;5058808;22;20602;-51
2021/01/26 07:47:48;;;;;;;0.20;0.10;;;;;;;3.31;97.04;100143.53;5042784;28;20515;-51
2021/01/26 07:50:39;;;;;;;0.37;0.37;;;;;;;3.40;96.31;100148.75;5056331;28;20439;-50
2021/01/26 07:53:39;;;;;;;0.20;0.10;;;;;;;3.34;96.73;100156.66;5041269;28;21045;-50
2021/01/26 07:56:36;;;;;;;0.20;0.10;;;;;;;3.44;96.38;100150.50;5050859;28;20442;-51
2021/01/26 07:59:05;;;;;;;0.20;0.10;;;;;;;3.48;96.12;100162.75;5037346;28;20905;-51
2021/01/26 08:01:40;;;;;;;0.20;0.10;;;;;;;3.42;95.46;100168.00;5051620;28;20459;-51
2021/01/26 08:04:07;;;;;;;0.20;0.20;;;;;;;3.42;95.46;100181.16;5056985;28;20466;-50
2021/01/26 08:06:36;;;;;;;0.20;0.10;;;;;;;3.39;95.95;100178.53;5037940;28;20454;-50
2021/01/26 08:09:04;;;;;;;0.20;0.10;;;;;;;3.40;96.22;100173.25;5050518;28;20443;-51
2021/01/26 08:11:31;;;;;;;0.20;0.20;;;;;;;3.50;95.71;100171.50;5050785;28;20937;-51
2021/01/26 08:14:01;;;;;;;0.20;0.10;;;;;;;3.48;95.54;100179.41;5036983;28;21125;-51
2021/01/26 08:16:34;;;;;;;0.20;0.10;;;;;;;3.55;96.04;100177.63;5049412;28;20794;-50
2021/01/26 08:19:16;;;;;;;0.20;0.10;;;;;;;3.64;95.48;100172.34;5037764;28;20475;-51
2021/01/26 08:21:45;;;;;;;0.20;0.10;;;;;;;3.60;95.38;100181.13;5046250;28;20939;-51
2021/01/26 08:24:33;;;;;;;0.20;0.10;;;;;;;3.56;95.34;100176.75;5044556;28;20900;-50
2021/01/26 08:27:25;;;;;;;0.20;0.10;;;;;;;3.50;95.25;100180.25;5042470;28;20534;-51
2021/01/26 08:29:54;;;;;;;0.20;0.10;;;;;;;3.53;95.54;100184.63;5047817;28;20451;-51
2021/01/26 08:32:23;;;;;;;0.20;0.10;;;;;;;3.55;95.34;100190.75;5042774;28;20478;-52
2021/01/26 08:34:58;;;;;;;0.20;0.10;;;;;;;3.66;95.60;100181.09;5050484;28;20534;-51
2021/01/26 08:37:43;;;;;;;0.20;0.10;;;;;;;3.64;95.71;100193.38;5037661;28;20447;-51
2021/01/26 08:40:20;;;;;;;0.40;0.40;;;;;;;3.56;95.16;100198.66;5049891;28;20446;-50
2021/01/26 08:42:49;;;;;;;0.20;0.10;;;;;;;3.50;95.57;100201.28;5036529;28;20482;-51
2021/01/26 08:45:39;;;;;;;0.20;0.10;;;;;;;3.57;95.27;100207.41;5049898;28;20459;-50
2021/01/26 08:48:09;;;;;;;0.20;0.10;;;;;;;3.56;95.40;100200.38;5036612;28;20447;-51
2021/01/26 08:50:40;;;;;;;0.20;0.10;;;;;;;3.55;95.05;100198.63;5047836;28;20450;-51
2021/01/26 08:53:17;;;;;;;0.20;0.10;;;;;;;3.69;95.42;100198.63;5037538;28;20471;-51
2021/01/26 08:55:46;;;;;;;0.20;0.10;;;;;;;3.80;94.70;100208.22;5047207;28;20792;-50
2021/01/26 08:58:35;;;;;;;0.20;0.10;;;;;;;3.88;93.94;100202.09;5038031;28;20991;-50
2021/01/26 09:01:03;;;;;;;0.20;0.10;;;;;;;3.91;93.62;100216.09;5046599;28;20822;-51
2021/01/26 09:03:35;;;;;;;0.20;0.10;;;;;;;4.00;93.52;100225.72;5056250;28;20477;-50
2021/01/26 09:06:04;;;;;;;0.20;0.10;;;;;;;3.91;93.78;100234.50;5041837;28;20447;-51
2021/01/26 09:08:40;;;;;;;0.20;0.10;;;;;;;3.93;93.56;100229.22;5046258;28;20438;-51
2021/01/26 09:11:14;;;;;;;0.20;0.10;;;;;;;4.02;94.12;100226.59;5038478;28;20932;-50
2021/01/26 09:13:42;;;;;;;0.20;0.10;;;;;;;4.10;93.71;100232.69;5047278;28;20983;-51
2021/01/26 09:16:28;;;;;;;0.20;0.20;;;;;;;4.11;93.62;100235.34;5035696;28;20452;-51
2021/01/26 09:19:06;;;;;;;0.20;0.10;;;;;;;4.25;93.20;100248.44;5049315;28;20568;-50
2021/01/26 09:21:34;;;;;;;0.20;0.10;;;;;;;4.16;93.63;100244.06;5035735;28;20443;-50
2021/01/26 09:24:02;;;;;;;0.20;0.10;;;;;;;4.09;93.14;100250.22;5051458;28;20470;-50
2021/01/26 09:26:30;;;;;;;0.20;0.10;;;;;;;4.12;92.99;100255.50;5046129;28;20448;-50
2021/01/26 09:28:57;;;;;;;0.20;0.10;;;;;;;4.37;92.75;100265.91;5035338;28;20809;-51
2021/01/26 09:31:27;;;;;;;0.20;0.10;;;;;;;4.41;92.23;100265.03;5045662;28;20455;-51
2021/01/26 09:34:05;;;;;;;0.20;0.10;;;;;;;4.52;92.45;100276.38;5037881;28;20518;-51
2021/01/26 09:36:36;;;;;;;0.20;0.10;;;;;;;4.45;91.87;100275.53;5048034;28;20439;-50
2021/01/26 09:39:08;;;;;;;0.20;0.10;;;;;;;4.46;91.95;100274.66;5035585;28;20569;-51
2021/01/26 09:41:36;;;;;;;0.20;0.10;;;;;;;4.46;91.83;100276.41;5048771;28;20443;-50
2021/01/26 09:44:07;;;;;;;0.20;0.10;;;;;;;4.45;92.07;100280.78;5035182;28;20491;-50
2021/01/26 09:46:36;;;;;;;0.20;0.10;;;;;;;4.54;92.12;100268.50;5049384;28;20451;-51
2021/01/26 09:49:15;;;;;;;0.20;0.10;;;;;;;4.46;92.30;100285.16;5035906;28;20988;-50
2021/01/26 09:52:14;;;;;;;0.20;0.10;;;;;;;4.52;91.51;100288.66;5051738;28;20863;-51
2021/01/26 09:54:42;;;;;;;0.20;0.10;;;;;;;4.53;91.65;100288.66;5044799;28;20475;-50
2021/01/26 09:57:18;;;;;;;0.20;0.13;;;;;;;4.58;91.74;100280.75;5046833;28;20501;-51
2021/01/26 09:59:45;;;;;;;0.20;0.13;;;;;;;4.46;92.05;100290.44;5037031;28;20544;-51
2021/01/26 10:02:14;;;;;;;0.20;0.10;;;;;;;4.40;92.51;100298.38;5043619;28;20466;-51
2021/01/26 10:04:43;;;;;;;0.20;0.10;;;;;;;4.52;91.56;100289.53;5048137;28;20474;-51
2021/01/26 10:07:19;;;;;;;0.20;0.10;;;;;;;4.51;90.57;100293.03;5034974;28;20479;-51
2021/01/26 10:09:45;;;;;;;0.20;0.10;;;;;;;4.47;91.62;100294.81;5047368;28;20478;-50
2021/01/26 10:12:20;;;;;;;0.20;0.10;;;;;;;4.66;91.36;100293.00;5034610;28;20486;-50
2021/01/26 10:15:18;;;;;;;0.20;0.10;;;;;;;4.78;90.34;100299.94;5047713;28;20471;-50
2021/01/26 10:18:04;;;;;;;0.20;0.10;;;;;;;4.88;90.38;100312.19;5039217;28;20477;-51
2021/01/26 10:20:50;;;;;;;0.20;0.10;;;;;;;4.75;90.00;100318.38;5040596;28;20455;-51
2021/01/26 10:23:26;;;;;;;0.20;0.10;;;;;;;4.78;89.80;100315.72;5044784;28;20463;-51
2021/01/26 10:26:05;;;;;;;0.30;0.20;;;;;;;4.93;90.04;100322.69;5040973;28;20993;-51
2021/01/26 10:28:32;;;;;;;0.20;0.10;;;;;;;5.06;89.90;100324.38;5041685;28;20444;-52
2021/01/26 10:31:02;;;;;;;0.20;0.20;;;;;;;4.90;89.49;100325.34;5034702;28;20452;-51
2021/01/26 10:33:49;;;;;;;0.20;0.10;;;;;;;4.86;89.60;100334.16;5047346;28;20988;-51
2021/01/26 10:36:30;;;;;;;0.20;0.10;;;;;;;4.80;89.53;100335.06;5034545;28;20818;-50
2021/01/26 10:39:19;;;;;;;1.53;1.50;;;;;;;4.93;89.58;100336.72;5047526;28;20487;-50
2021/01/26 10:41:46;;;;;;;0.20;0.10;;;;;;;5.13;88.57;100349.81;5036253;28;20444;-51
2021/01/26 10:44:16;;;;;;;0.20;0.13;;;;;;;5.12;89.10;100358.59;5047295;28;21011;-50
2021/01/26 10:46:46;;;;;;;0.20;0.20;;;;;;;5.16;89.13;100360.31;5037535;28;20466;-50
2021/01/26 10:49:30;;;;;;;0.20;0.10;;;;;;;5.04;89.01;100363.88;5045503;28;20455;-51
2021/01/26 10:52:06;;;;;;;0.20;0.10;;;;;;;4.99;89.63;100362.19;5039644;28;20964;-51
2021/01/26 10:54:34;;;;;;;0.20;0.10;;;;;;;4.84;88.78;100367.50;5051589;28;20808;-51
2021/01/26 10:57:00;;;;;;;0.20;0.10;;;;;;;4.79;89.08;100358.75;5046050;28;20448;-51
2021/01/26 10:59:26;;;;;;;0.20;0.10;;;;;;;4.89;89.38;100360.47;5035400;28;20490;-50
2021/01/26 11:01:53;;;;;;;0.20;0.10;;;;;;;4.98;89.46;100358.66;5047301;28;20970;-51
2021/01/26 11:04:20;;;;;;;0.20;0.20;;;;;;;4.96;89.12;100370.97;5035650;28;20475;-50
2021/01/26 11:06:47;;;;;;;0.20;0.10;;;;;;;4.94;89.27;100363.97;5045696;28;20451;-51
2021/01/26 11:09:15;;;;;;;0.20;0.10;;;;;;;4.89;89.41;100363.97;5035968;28;20439;-51
2021/01/26 11:11:44;;;;;;;0.20;0.10;;;;;;;4.84;90.68;100364.88;5044969;28;20957;-51
2021/01/26 11:14:11;;;;;;;0.20;0.13;;;;;;;4.79;90.13;100379.81;5036624;28;20472;-50
2021/01/26 11:16:38;;;;;;;0.20;0.10;;;;;;;4.91;90.10;100362.19;5044659;28;20497;-51
2021/01/26 11:19:04;;;;;;;0.30;0.20;;;;;;;4.88;90.18;100382.41;5036216;28;20498;-49
2021/01/26 11:21:31;;;;;;;0.20;0.10;;;;;;;4.86;89.44;100376.28;5044884;28;20463;-48
2021/01/26 11:23:59;;;;;;;0.20;0.17;;;;;;;4.84;89.51;100372.78;5037213;28;20470;-48
2021/01/26 11:26:26;;;;;;;0.20;0.10;;;;;;;4.90;89.89;100364.84;5041955;28;20475;-50
2021/01/26 11:28:53;;;;;;;0.40;0.37;;;;;;;4.85;88.37;100380.69;5050697;28;20490;-51
2021/01/26 11:31:20;;;;;;;0.20;0.10;;;;;;;4.85;88.93;100371.91;5045128;28;20450;-51
2021/01/26 11:33:47;;;;;;;0.20;0.20;;;;;;;4.97;88.75;100380.63;5039807;28;20852;-50
2021/01/26 11:36:14;;;;;;;0.20;0.10;;;;;;;4.97;89.59;100374.47;5043317;28;20447;-48
2021/01/26 11:38:40;;;;;;;0.20;0.10;;;;;;;4.97;88.81;100383.25;5036907;28;20478;-50
2021/01/26 11:41:07;;;;;;;0.20;0.10;;;;;;;4.99;89.08;100378.84;5043604;28;20452;-51
2021/01/26 11:43:34;;;;;;;0.20;0.10;;;;;;;5.05;88.54;100373.53;5036497;28;20552;-50
2021/01/26 11:46:01;;;;;;;0.20;0.10;;;;;;;5.15;89.00;100384.03;5043623;28;20456;-51
2021/01/26 11:48:29;;;;;;;0.20;0.10;;;;;;;5.15;88.43;100394.59;5036954;28;20443;-48
2021/01/26 11:50:56;;;;;;;0.20;0.10;;;;;;;5.14;89.49;100398.97;5042954;28;20972;-48
2021/01/26 11:53:23;;;;;;;0.20;0.10;;;;;;;5.01;88.81;100398.16;5038397;28;20524;-48
2021/01/26 11:55:50;;;;;;;0.20;0.20;;;;;;;4.96;88.62;100394.69;5053040;28;21017;-48
2021/01/26 11:58:18;;;;;;;0.20;0.10;;;;;;;5.02;88.67;100404.31;5035640;28;20474;-48
2021/01/26 12:00:44;;;;;;;0.20;0.10;;;;;;;5.18;88.17;100389.28;5045974;28;20870;-48
2021/01/26 12:03:10;;;;;;;0.20;0.13;;;;;;;5.09;88.67;100397.25;5036875;28;20483;-48
2021/01/26 12:05:39;;;;;;;0.20;0.10;;;;;;;5.17;89.75;100396.31;5045679;28;21010;-48
2021/01/26 12:08:07;;;;;;;0.20;0.10;;;;;;;5.36;88.69;100391.84;5034997;28;20455;-48